sensor_id;sensor_type;location;lat;lon;timestamp;temperature;humidity
32201;DHT22;18701;45.588;5.288;2023-04-23T00:00:01;13.60;99.90
32201;DHT22;18701;45.588;5.288;2023-04-23T00:02:28;13.60;99.90
32201;DHT22;18701;45.588;5.288;2023-04-23T00:04:56;13.50;99.90
32201;DHT22;18701;45.588;5.288;2023-04-23T00:07:26;13.40;99.90
32201;DHT22;18701;45.588;5.288;2023-04-23T00:09:55;13.40;99.90
32201;DHT22;18701;45.588;5.288;2023-04-23T00:12:22;13.50;99.90
32201;DHT22;18701;45.588;5.288;2023-04-23T00:14:48;13.40;99.90
32201;DHT22;18701;45.588;5.288;2023-04-23T00:17:13;13.50;99.90
32201;DHT22;18701;45.588;5.288;2023-04-23T00:19:39;13.50;99.90
32201;DHT22;18701;45.588;5.288;2023-04-23T00:22:05;13.50;99.90
32201;DHT22;18701;45.588;5.288;2023-04-23T00:24:31;13.50;99.90
32201;DHT22;18701;45.588;5.288;2023-04-23T00:26:58;13.50;99.90
32201;DHT22;18701;45.588;5.288;2023-04-23T00:29:24;13.40;99.90
32201;DHT22;18701;45.588;5.288;2023-04-23T00:31:49;13.40;99.90
32201;DHT22;18701;45.588;5.288;2023-04-23T00:34:15;13.50;99.90
32201;DHT22;18701;45.588;5.288;2023-04-23T00:36:40;13.40;99.90
32201;DHT22;18701;45.588;5.288;2023-04-23T00:39:06;13.20;99.90
32201;DHT22;18701;45.588;5.288;2023-04-23T00:41:32;13.30;99.90
32201;DHT22;18701;45.588;5.288;2023-04-23T00:43:59;13.40;99.90
32201;DHT22;18701;45.588;5.288;2023-04-23T00:46:25;13.40;99.90
32201;DHT22;18701;45.588;5.288;2023-04-23T00:48:53;13.40;99.90
32201;DHT22;18701;45.588;5.288;2023-04-23T00:51:21;13.30;99.90
32201;DHT22;18701;45.588;5.288;2023-04-23T00:53:47;13.30;99.90
32201;DHT22;18701;45.588;5.288;2023-04-23T00:56:14;13.40;99.90
32201;DHT22;18701;45.588;5.288;2023-04-23T00:58:40;13.30;99.90
32201;DHT22;18701;45.588;5.288;2023-04-23T01:01:06;13.30;99.90
32201;DHT22;18701;45.588;5.288;2023-04-23T01:03:34;13.30;99.90
32201;DHT22;18701;45.588;5.288;2023-04-23T01:06:01;13.30;99.90
32201;DHT22;18701;45.588;5.288;2023-04-23T01:08:27;13.30;99.90
32201;DHT22;18701;45.588;5.288;2023-04-23T01:10:53;13.20;99.90
32201;DHT22;18701;45.588;5.288;2023-04-23T01:13:19;13.10;99.90
32201;DHT22;18701;45.588;5.288;2023-04-23T01:15:46;13.10;99.90
32201;DHT22;18701;45.588;5.288;2023-04-23T01:18:13;13.20;99.90
32201;DHT22;18701;45.588;5.288;2023-04-23T01:20:39;13.20;99.90
32201;DHT22;18701;45.588;5.288;2023-04-23T01:23:05;13.20;99.90
32201;DHT22;18701;45.588;5.288;2023-04-23T01:25:30;13.20;99.90
32201;DHT22;18701;45.588;5.288;2023-04-23T01:27:57;13.10;99.90
32201;DHT22;18701;45.588;5.288;2023-04-23T01:30:25;13.20;99.90
32201;DHT22;18701;45.588;5.288;2023-04-23T01:32:53;13.20;99.90
32201;DHT22;18701;45.588;5.288;2023-04-23T01:35:18;13.20;99.90
32201;DHT22;18701;45.588;5.288;2023-04-23T01:37:45;13.20;99.90
32201;DHT22;18701;45.588;5.288;2023-04-23T01:40:11;13.10;99.90
32201;DHT22;18701;45.588;5.288;2023-04-23T01:42:37;13.10;99.90
32201;DHT22;18701;45.588;5.288;2023-04-23T01:45:03;13.10;99.90
32201;DHT22;18701;45.588;5.288;2023-04-23T01:47:33;13.10;99.90
32201;DHT22;18701;45.588;5.288;2023-04-23T01:49:58;13.10;99.90
32201;DHT22;18701;45.588;5.288;2023-04-23T01:52:24;12.90;99.90
32201;DHT22;18701;45.588;5.288;2023-04-23T01:54:50;12.90;99.90
32201;DHT22;18701;45.588;5.288;2023-04-23T01:57:18;12.80;99.90
32201;DHT22;18701;45.588;5.288;2023-04-23T01:59:49;12.60;99.90
32201;DHT22;18701;45.588;5.288;2023-04-23T02:02:15;12.60;99.90
32201;DHT22;18701;45.588;5.288;2023-04-23T02:04:43;12.70;99.90
32201;DHT22;18701;45.588;5.288;2023-04-23T02:07:10;12.70;99.90
32201;DHT22;18701;45.588;5.288;2023-04-23T02:09:36;12.70;99.90
32201;DHT22;18701;45.588;5.288;2023-04-23T02:12:01;12.70;99.90
32201;DHT22;18701;45.588;5.288;2023-04-23T02:14:27;12.70;99.90
32201;DHT22;18701;45.588;5.288;2023-04-23T02:16:53;12.70;99.90
32201;DHT22;18701;45.588;5.288;2023-04-23T02:19:19;12.60;99.90
32201;DHT22;18701;45.588;5.288;2023-04-23T02:21:44;12.60;99.90
32201;DHT22;18701;45.588;5.288;2023-04-23T02:24:10;12.60;99.90
32201;DHT22;18701;45.588;5.288;2023-04-23T02:26:36;12.50;99.90
32201;DHT22;18701;45.588;5.288;2023-04-23T02:29:01;12.40;99.90
32201;DHT22;18701;45.588;5.288;2023-04-23T02:31:27;12.40;99.90
32201;DHT22;18701;45.588;5.288;2023-04-23T02:33:53;12.50;99.90
32201;DHT22;18701;45.588;5.288;2023-04-23T02:36:18;12.50;99.90
32201;DHT22;18701;45.588;5.288;2023-04-23T02:38:44;12.40;99.90
32201;DHT22;18701;45.588;5.288;2023-04-23T02:41:12;12.50;99.90
32201;DHT22;18701;45.588;5.288;2023-04-23T02:43:38;12.60;99.90
32201;DHT22;18701;45.588;5.288;2023-04-23T02:46:04;12.50;99.90
32201;DHT22;18701;45.588;5.288;2023-04-23T02:48:41;12.50;99.90
32201;DHT22;18701;45.588;5.288;2023-04-23T02:51:11;12.40;99.90
32201;DHT22;18701;45.588;5.288;2023-04-23T02:53:37;12.40;99.90
32201;DHT22;18701;45.588;5.288;2023-04-23T02:56:03;12.40;99.90
32201;DHT22;18701;45.588;5.288;2023-04-23T02:58:29;12.40;99.90
32201;DHT22;18701;45.588;5.288;2023-04-23T03:00:55;12.50;99.90
32201;DHT22;18701;45.588;5.288;2023-04-23T03:03:21;12.50;99.90
32201;DHT22;18701;45.588;5.288;2023-04-23T03:05:47;12.50;99.90
32201;DHT22;18701;45.588;5.288;2023-04-23T03:08:12;12.50;99.90
32201;DHT22;18701;45.588;5.288;2023-04-23T03:10:38;12.50;99.90
32201;DHT22;18701;45.588;5.288;2023-04-23T03:13:03;12.40;99.90
32201;DHT22;18701;45.588;5.288;2023-04-23T03:15:29;12.50;99.90
32201;DHT22;18701;45.588;5.288;2023-04-23T03:17:55;12.30;99.90
32201;DHT22;18701;45.588;5.288;2023-04-23T03:20:21;12.30;99.90
32201;DHT22;18701;45.588;5.288;2023-04-23T03:22:46;12.20;99.90
32201;DHT22;18701;45.588;5.288;2023-04-23T03:25:12;12.20;99.90
32201;DHT22;18701;45.588;5.288;2023-04-23T03:27:38;12.20;99.90
32201;DHT22;18701;45.588;5.288;2023-04-23T03:30:05;12.20;99.90
32201;DHT22;18701;45.588;5.288;2023-04-23T03:32:33;12.00;99.90
32201;DHT22;18701;45.588;5.288;2023-04-23T03:34:59;12.00;99.90
32201;DHT22;18701;45.588;5.288;2023-04-23T03:37:25;12.00;99.90
32201;DHT22;18701;45.588;5.288;2023-04-23T03:39:51;11.80;99.90
32201;DHT22;18701;45.588;5.288;2023-04-23T03:42:16;11.90;99.90
32201;DHT22;18701;45.588;5.288;2023-04-23T03:44:42;11.90;99.90
32201;DHT22;18701;45.588;5.288;2023-04-23T03:47:08;11.90;99.90
32201;DHT22;18701;45.588;5.288;2023-04-23T03:49:33;11.80;99.90
32201;DHT22;18701;45.588;5.288;2023-04-23T03:51:59;11.80;99.90
32201;DHT22;18701;45.588;5.288;2023-04-23T03:54:24;11.70;99.90
32201;DHT22;18701;45.588;5.288;2023-04-23T03:56:52;11.80;99.90
32201;DHT22;18701;45.588;5.288;2023-04-23T03:59:19;11.80;99.90
32201;DHT22;18701;45.588;5.288;2023-04-23T04:01:45;11.90;99.90
32201;DHT22;18701;45.588;5.288;2023-04-23T04:04:13;11.90;99.90
32201;DHT22;18701;45.588;5.288;2023-04-23T04:06:39;11.90;99.90
32201;DHT22;18701;45.588;5.288;2023-04-23T04:09:05;11.90;99.90
32201;DHT22;18701;45.588;5.288;2023-04-23T04:11:32;11.80;99.90
32201;DHT22;18701;45.588;5.288;2023-04-23T04:13:58;11.70;99.90
32201;DHT22;18701;45.588;5.288;2023-04-23T04:16:23;11.70;99.90
32201;DHT22;18701;45.588;5.288;2023-04-23T04:18:49;11.60;99.90
32201;DHT22;18701;45.588;5.288;2023-04-23T04:21:15;11.60;99.90
32201;DHT22;18701;45.588;5.288;2023-04-23T04:23:42;11.50;99.90
32201;DHT22;18701;45.588;5.288;2023-04-23T04:26:08;11.40;99.90
32201;DHT22;18701;45.588;5.288;2023-04-23T04:28:33;11.50;99.90
32201;DHT22;18701;45.588;5.288;2023-04-23T04:31:02;11.50;99.90
32201;DHT22;18701;45.588;5.288;2023-04-23T04:33:28;11.60;99.90
32201;DHT22;18701;45.588;5.288;2023-04-23T04:35:54;11.40;99.90
32201;DHT22;18701;45.588;5.288;2023-04-23T04:38:21;11.40;99.90
32201;DHT22;18701;45.588;5.288;2023-04-23T04:40:46;11.40;99.90
32201;DHT22;18701;45.588;5.288;2023-04-23T04:43:13;11.40;99.90
32201;DHT22;18701;45.588;5.288;2023-04-23T04:45:41;11.40;99.90
32201;DHT22;18701;45.588;5.288;2023-04-23T04:48:07;11.40;99.90
32201;DHT22;18701;45.588;5.288;2023-04-23T04:50:33;11.40;99.90
32201;DHT22;18701;45.588;5.288;2023-04-23T04:52:58;11.40;99.90
32201;DHT22;18701;45.588;5.288;2023-04-23T04:55:24;11.40;99.90
32201;DHT22;18701;45.588;5.288;2023-04-23T04:57:50;11.40;99.90
32201;DHT22;18701;45.588;5.288;2023-04-23T05:00:23;11.30;99.90
32201;DHT22;18701;45.588;5.288;2023-04-23T05:02:52;11.20;99.90
32201;DHT22;18701;45.588;5.288;2023-04-23T05:05:22;11.30;99.90
32201;DHT22;18701;45.588;5.288;2023-04-23T05:07:47;11.40;99.90
32201;DHT22;18701;45.588;5.288;2023-04-23T05:10:14;11.40;99.90
32201;DHT22;18701;45.588;5.288;2023-04-23T05:12:42;11.40;99.90
32201;DHT22;18701;45.588;5.288;2023-04-23T05:15:10;11.40;99.90
32201;DHT22;18701;45.588;5.288;2023-04-23T05:17:40;11.50;99.90
32201;DHT22;18701;45.588;5.288;2023-04-23T05:20:07;11.50;99.90
32201;DHT22;18701;45.588;5.288;2023-04-23T05:22:39;11.50;99.90
32201;DHT22;18701;45.588;5.288;2023-04-23T05:25:09;11.50;99.90
32201;DHT22;18701;45.588;5.288;2023-04-23T05:27:36;11.50;99.90
32201;DHT22;18701;45.588;5.288;2023-04-23T05:30:03;11.50;99.90
32201;DHT22;18701;45.588;5.288;2023-04-23T05:32:29;11.50;99.90
32201;DHT22;18701;45.588;5.288;2023-04-23T05:34:55;11.50;99.90
32201;DHT22;18701;45.588;5.288;2023-04-23T05:37:20;11.60;99.90
32201;DHT22;18701;45.588;5.288;2023-04-23T05:39:46;11.50;99.90
32201;DHT22;18701;45.588;5.288;2023-04-23T05:42:12;11.50;99.90
32201;DHT22;18701;45.588;5.288;2023-04-23T05:44:38;11.50;99.90
32201;DHT22;18701;45.588;5.288;2023-04-23T05:47:06;11.50;99.90
32201;DHT22;18701;45.588;5.288;2023-04-23T05:49:33;11.50;99.90
32201;DHT22;18701;45.588;5.288;2023-04-23T05:51:59;11.50;99.90
32201;DHT22;18701;45.588;5.288;2023-04-23T05:54:27;11.60;99.90
32201;DHT22;18701;45.588;5.288;2023-04-23T05:56:52;11.60;99.90
32201;DHT22;18701;45.588;5.288;2023-04-23T05:59:18;11.60;99.90
32201;DHT22;18701;45.588;5.288;2023-04-23T06:01:44;11.70;99.90
32201;DHT22;18701;45.588;5.288;2023-04-23T06:04:09;11.60;99.90
32201;DHT22;18701;45.588;5.288;2023-04-23T06:06:35;11.60;99.90
32201;DHT22;18701;45.588;5.288;2023-04-23T06:09:01;11.60;99.90
32201;DHT22;18701;45.588;5.288;2023-04-23T06:11:26;11.80;99.90
32201;DHT22;18701;45.588;5.288;2023-04-23T06:13:52;11.70;99.90
32201;DHT22;18701;45.588;5.288;2023-04-23T06:16:17;11.80;99.90
32201;DHT22;18701;45.588;5.288;2023-04-23T06:18:43;11.90;99.90
32201;DHT22;18701;45.588;5.288;2023-04-23T06:21:09;11.90;99.90
32201;DHT22;18701;45.588;5.288;2023-04-23T06:23:34;12.00;99.90
32201;DHT22;18701;45.588;5.288;2023-04-23T06:26:01;12.00;99.90
32201;DHT22;18701;45.588;5.288;2023-04-23T06:28:28;12.10;99.90
32201;DHT22;18701;45.588;5.288;2023-04-23T06:30:54;12.10;99.90
32201;DHT22;18701;45.588;5.288;2023-04-23T06:33:19;12.20;99.90
32201;DHT22;18701;45.588;5.288;2023-04-23T06:35:45;12.10;99.90
32201;DHT22;18701;45.588;5.288;2023-04-23T06:38:11;12.20;99.90
32201;DHT22;18701;45.588;5.288;2023-04-23T06:40:37;12.30;99.90
32201;DHT22;18701;45.588;5.288;2023-04-23T06:43:02;12.40;99.90
32201;DHT22;18701;45.588;5.288;2023-04-23T06:45:33;12.50;99.90
32201;DHT22;18701;45.588;5.288;2023-04-23T06:47:59;12.60;99.90
32201;DHT22;18701;45.588;5.288;2023-04-23T06:50:25;12.70;99.90
32201;DHT22;18701;45.588;5.288;2023-04-23T06:52:52;12.70;99.90
32201;DHT22;18701;45.588;5.288;2023-04-23T06:55:17;12.80;99.90
32201;DHT22;18701;45.588;5.288;2023-04-23T06:57:43;12.90;99.90
32201;DHT22;18701;45.588;5.288;2023-04-23T07:00:10;13.00;99.90
32201;DHT22;18701;45.588;5.288;2023-04-23T07:02:36;13.20;99.90
32201;DHT22;18701;45.588;5.288;2023-04-23T07:05:02;13.30;99.90
32201;DHT22;18701;45.588;5.288;2023-04-23T07:07:28;13.40;99.90
32201;DHT22;18701;45.588;5.288;2023-04-23T07:09:54;13.60;99.90
32201;DHT22;18701;45.588;5.288;2023-04-23T07:12:23;13.70;99.90
32201;DHT22;18701;45.588;5.288;2023-04-23T07:14:48;13.90;99.90
32201;DHT22;18701;45.588;5.288;2023-04-23T07:17:17;14.10;99.90
32201;DHT22;18701;45.588;5.288;2023-04-23T07:19:43;14.20;99.90
32201;DHT22;18701;45.588;5.288;2023-04-23T07:22:08;14.30;99.90
32201;DHT22;18701;45.588;5.288;2023-04-23T07:24:34;14.30;99.90
32201;DHT22;18701;45.588;5.288;2023-04-23T07:27:00;14.50;99.90
32201;DHT22;18701;45.588;5.288;2023-04-23T07:29:27;14.50;99.90
32201;DHT22;18701;45.588;5.288;2023-04-23T07:31:52;14.60;99.90
32201;DHT22;18701;45.588;5.288;2023-04-23T07:34:18;14.50;99.90
32201;DHT22;18701;45.588;5.288;2023-04-23T07:36:43;14.60;99.90
32201;DHT22;18701;45.588;5.288;2023-04-23T07:39:09;14.70;99.90
32201;DHT22;18701;45.588;5.288;2023-04-23T07:41:35;14.80;99.90
32201;DHT22;18701;45.588;5.288;2023-04-23T07:44:01;14.70;99.90
32201;DHT22;18701;45.588;5.288;2023-04-23T07:46:27;14.70;99.90
32201;DHT22;18701;45.588;5.288;2023-04-23T07:48:53;14.60;99.90
32201;DHT22;18701;45.588;5.288;2023-04-23T07:51:18;14.60;99.90
32201;DHT22;18701;45.588;5.288;2023-04-23T07:53:44;14.70;99.90
32201;DHT22;18701;45.588;5.288;2023-04-23T07:56:11;14.80;99.90
32201;DHT22;18701;45.588;5.288;2023-04-23T07:58:37;14.80;99.90
32201;DHT22;18701;45.588;5.288;2023-04-23T08:01:03;14.90;99.90
32201;DHT22;18701;45.588;5.288;2023-04-23T08:03:28;15.10;99.90
32201;DHT22;18701;45.588;5.288;2023-04-23T08:05:54;15.20;99.90
32201;DHT22;18701;45.588;5.288;2023-04-23T08:08:22;15.10;99.90
32201;DHT22;18701;45.588;5.288;2023-04-23T08:10:47;15.30;99.90
32201;DHT22;18701;45.588;5.288;2023-04-23T08:13:13;15.40;99.90
32201;DHT22;18701;45.588;5.288;2023-04-23T08:15:39;15.50;99.90
32201;DHT22;18701;45.588;5.288;2023-04-23T08:18:04;15.70;99.90
32201;DHT22;18701;45.588;5.288;2023-04-23T08:20:30;15.80;99.90
32201;DHT22;18701;45.588;5.288;2023-04-23T08:22:59;15.90;99.90
32201;DHT22;18701;45.588;5.288;2023-04-23T08:25:25;15.90;99.90
32201;DHT22;18701;45.588;5.288;2023-04-23T08:27:50;15.80;99.90
32201;DHT22;18701;45.588;5.288;2023-04-23T08:30:16;15.70;99.90
32201;DHT22;18701;45.588;5.288;2023-04-23T08:32:42;15.70;99.90
32201;DHT22;18701;45.588;5.288;2023-04-23T08:35:08;15.70;99.90
32201;DHT22;18701;45.588;5.288;2023-04-23T08:37:33;15.90;99.90
32201;DHT22;18701;45.588;5.288;2023-04-23T08:40:00;16.00;99.90
32201;DHT22;18701;45.588;5.288;2023-04-23T08:42:57;15.90;99.90
32201;DHT22;18701;45.588;5.288;2023-04-23T08:45:24;16.20;99.90
32201;DHT22;18701;45.588;5.288;2023-04-23T08:47:50;16.40;99.90
32201;DHT22;18701;45.588;5.288;2023-04-23T08:50:17;16.80;99.90
32201;DHT22;18701;45.588;5.288;2023-04-23T08:52:52;16.70;99.90
32201;DHT22;18701;45.588;5.288;2023-04-23T08:55:18;16.80;99.90
32201;DHT22;18701;45.588;5.288;2023-04-23T08:57:45;16.60;99.90
32201;DHT22;18701;45.588;5.288;2023-04-23T09:00:13;16.80;99.90
32201;DHT22;18701;45.588;5.288;2023-04-23T09:02:42;16.90;99.90
32201;DHT22;18701;45.588;5.288;2023-04-23T09:05:08;17.20;99.90
32201;DHT22;18701;45.588;5.288;2023-04-23T09:07:34;17.30;99.90
32201;DHT22;18701;45.588;5.288;2023-04-23T09:10:08;17.30;99.90
32201;DHT22;18701;45.588;5.288;2023-04-23T09:12:35;17.10;99.90
32201;DHT22;18701;45.588;5.288;2023-04-23T09:15:01;17.20;99.90
32201;DHT22;18701;45.588;5.288;2023-04-23T09:17:28;16.90;99.90
32201;DHT22;18701;45.588;5.288;2023-04-23T09:19:55;17.10;99.90
32201;DHT22;18701;45.588;5.288;2023-04-23T09:22:48;17.00;99.90
32201;DHT22;18701;45.588;5.288;2023-04-23T09:25:16;17.10;99.90
32201;DHT22;18701;45.588;5.288;2023-04-23T09:27:42;17.00;99.90
32201;DHT22;18701;45.588;5.288;2023-04-23T09:30:09;17.10;99.90
32201;DHT22;18701;45.588;5.288;2023-04-23T09:32:39;17.00;99.90
32201;DHT22;18701;45.588;5.288;2023-04-23T09:35:07;17.20;99.90
32201;DHT22;18701;45.588;5.288;2023-04-23T09:37:34;17.20;99.90
32201;DHT22;18701;45.588;5.288;2023-04-23T09:40:09;17.20;99.90
32201;DHT22;18701;45.588;5.288;2023-04-23T09:42:37;17.20;99.90
32201;DHT22;18701;45.588;5.288;2023-04-23T09:45:05;17.30;99.90
32201;DHT22;18701;45.588;5.288;2023-04-23T09:47:37;17.10;99.90
32201;DHT22;18701;45.588;5.288;2023-04-23T09:50:03;17.00;99.90
32201;DHT22;18701;45.588;5.288;2023-04-23T09:52:33;17.10;99.90
32201;DHT22;18701;45.588;5.288;2023-04-23T09:55:03;17.10;99.90
32201;DHT22;18701;45.588;5.288;2023-04-23T09:57:50;17.10;99.90
32201;DHT22;18701;45.588;5.288;2023-04-23T10:00:18;17.20;99.90
32201;DHT22;18701;45.588;5.288;2023-04-23T10:02:50;17.10;99.90
32201;DHT22;18701;45.588;5.288;2023-04-23T10:05:20;17.30;99.90
32201;DHT22;18701;45.588;5.288;2023-04-23T10:07:47;17.10;99.90
32201;DHT22;18701;45.588;5.288;2023-04-23T10:10:16;17.40;99.90
32201;DHT22;18701;45.588;5.288;2023-04-23T10:12:43;17.60;99.90
32201;DHT22;18701;45.588;5.288;2023-04-23T10:15:10;17.50;99.90
32201;DHT22;18701;45.588;5.288;2023-04-23T10:17:36;17.50;99.90
32201;DHT22;18701;45.588;5.288;2023-04-23T10:20:03;17.50;99.90
32201;DHT22;18701;45.588;5.288;2023-04-23T10:22:29;17.40;99.90
32201;DHT22;18701;45.588;5.288;2023-04-23T10:24:56;17.60;99.90
32201;DHT22;18701;45.588;5.288;2023-04-23T10:27:29;17.70;99.90
32201;DHT22;18701;45.588;5.288;2023-04-23T10:29:56;17.70;99.90
32201;DHT22;18701;45.588;5.288;2023-04-23T10:32:22;17.60;99.90
32201;DHT22;18701;45.588;5.288;2023-04-23T10:34:49;17.70;99.90
32201;DHT22;18701;45.588;5.288;2023-04-23T10:37:16;17.80;99.90
32201;DHT22;18701;45.588;5.288;2023-04-23T10:39:46;17.80;99.90
32201;DHT22;18701;45.588;5.288;2023-04-23T10:42:15;17.80;99.90
32201;DHT22;18701;45.588;5.288;2023-04-23T10:44:42;17.90;99.90
32201;DHT22;18701;45.588;5.288;2023-04-23T10:47:17;18.00;99.90
32201;DHT22;18701;45.588;5.288;2023-04-23T10:49:44;18.00;99.90
32201;DHT22;18701;45.588;5.288;2023-04-23T10:52:15;18.10;99.90
32201;DHT22;18701;45.588;5.288;2023-04-23T10:54:42;18.20;99.90
32201;DHT22;18701;45.588;5.288;2023-04-23T10:57:09;18.20;99.90
32201;DHT22;18701;45.588;5.288;2023-04-23T10:59:39;18.10;99.90
32201;DHT22;18701;45.588;5.288;2023-04-23T11:04:33;18.20;99.40
32201;DHT22;18701;45.588;5.288;2023-04-23T11:07:09;18.20;99.30
32201;DHT22;18701;45.588;5.288;2023-04-23T11:09:42;18.10;99.20
32201;DHT22;18701;45.588;5.288;2023-04-23T11:12:30;18.10;97.80
32201;DHT22;18701;45.588;5.288;2023-04-23T11:14:57;18.20;98.50
32201;DHT22;18701;45.588;5.288;2023-04-23T11:20:07;18.00;98.70
32201;DHT22;18701;45.588;5.288;2023-04-23T11:22:37;18.00;98.50
32201;DHT22;18701;45.588;5.288;2023-04-23T11:25:04;18.00;98.20
32201;DHT22;18701;45.588;5.288;2023-04-23T11:27:33;18.10;97.90
32201;DHT22;18701;45.588;5.288;2023-04-23T11:30:01;18.00;97.60
32201;DHT22;18701;45.588;5.288;2023-04-23T11:32:27;18.00;97.90
32201;DHT22;18701;45.588;5.288;2023-04-23T11:34:52;18.30;97.70
32201;DHT22;18701;45.588;5.288;2023-04-23T11:37:19;18.10;96.90
32201;DHT22;18701;45.588;5.288;2023-04-23T11:39:45;18.30;96.80
32201;DHT22;18701;45.588;5.288;2023-04-23T11:42:15;18.50;97.50
32201;DHT22;18701;45.588;5.288;2023-04-23T11:44:43;18.50;97.40
32201;DHT22;18701;45.588;5.288;2023-04-23T11:47:10;18.70;97.70
32201;DHT22;18701;45.588;5.288;2023-04-23T11:49:41;18.30;97.40
32201;DHT22;18701;45.588;5.288;2023-04-23T11:52:08;18.10;97.40
32201;DHT22;18701;45.588;5.288;2023-04-23T11:54:34;18.10;97.30
32201;DHT22;18701;45.588;5.288;2023-04-23T11:57:00;18.20;97.30
32201;DHT22;18701;45.588;5.288;2023-04-23T11:59:27;18.00;97.00
32201;DHT22;18701;45.588;5.288;2023-04-23T12:01:58;17.90;96.50
32201;DHT22;18701;45.588;5.288;2023-04-23T12:04:30;17.80;96.40
32201;DHT22;18701;45.588;5.288;2023-04-23T12:06:57;17.90;96.60
32201;DHT22;18701;45.588;5.288;2023-04-23T12:09:26;18.00;96.30
32201;DHT22;18701;45.588;5.288;2023-04-23T12:11:52;18.00;96.50
32201;DHT22;18701;45.588;5.288;2023-04-23T12:14:19;18.10;96.40
32201;DHT22;18701;45.588;5.288;2023-04-23T12:16:51;17.90;96.10
32201;DHT22;18701;45.588;5.288;2023-04-23T12:24:28;18.30;96.20
32201;DHT22;18701;45.588;5.288;2023-04-23T12:26:58;18.30;96.00
32201;DHT22;18701;45.588;5.288;2023-04-23T12:29:29;18.50;96.00
32201;DHT22;18701;45.588;5.288;2023-04-23T12:31:57;18.70;96.40
32201;DHT22;18701;45.588;5.288;2023-04-23T12:34:23;19.00;96.20
32201;DHT22;18701;45.588;5.288;2023-04-23T12:36:51;19.00;96.20
32201;DHT22;18701;45.588;5.288;2023-04-23T12:39:30;18.80;96.40
32201;DHT22;18701;45.588;5.288;2023-04-23T12:42:04;18.70;96.20
32201;DHT22;18701;45.588;5.288;2023-04-23T12:44:32;18.60;96.30
32201;DHT22;18701;45.588;5.288;2023-04-23T12:47:04;18.30;96.10
32201;DHT22;18701;45.588;5.288;2023-04-23T12:49:30;18.10;96.20
32201;DHT22;18701;45.588;5.288;2023-04-23T12:51:57;18.20;96.40
32201;DHT22;18701;45.588;5.288;2023-04-23T12:54:26;18.30;96.40
32201;DHT22;18701;45.588;5.288;2023-04-23T12:56:52;18.00;97.00
32201;DHT22;18701;45.588;5.288;2023-04-23T12:59:18;18.00;97.10
32201;DHT22;18701;45.588;5.288;2023-04-23T13:01:43;18.00;97.20
32201;DHT22;18701;45.588;5.288;2023-04-23T13:04:09;17.90;97.80
32201;DHT22;18701;45.588;5.288;2023-04-23T13:06:35;18.10;97.70
32201;DHT22;18701;45.588;5.288;2023-04-23T13:09:00;17.90;97.90
32201;DHT22;18701;45.588;5.288;2023-04-23T13:11:30;17.80;98.10
32201;DHT22;18701;45.588;5.288;2023-04-23T13:13:56;17.80;98.50
32201;DHT22;18701;45.588;5.288;2023-04-23T13:16:22;17.80;98.80
32201;DHT22;18701;45.588;5.288;2023-04-23T13:18:48;17.80;99.00
32201;DHT22;18701;45.588;5.288;2023-04-23T13:21:16;17.80;99.20
32201;DHT22;18701;45.588;5.288;2023-04-23T13:23:41;17.80;99.30
32201;DHT22;18701;45.588;5.288;2023-04-23T13:26:07;17.80;99.70
32201;DHT22;18701;45.588;5.288;2023-04-23T13:28:34;17.80;99.30
32201;DHT22;18701;45.588;5.288;2023-04-23T13:31:00;17.70;99.40
32201;DHT22;18701;45.588;5.288;2023-04-23T13:33:26;17.70;99.70
32201;DHT22;18701;45.588;5.288;2023-04-23T13:35:51;17.70;99.70
32201;DHT22;18701;45.588;5.288;2023-04-23T13:38:17;17.70;99.90
32201;DHT22;18701;45.588;5.288;2023-04-23T13:40:43;17.50;99.90
32201;DHT22;18701;45.588;5.288;2023-04-23T13:43:08;17.60;99.90
32201;DHT22;18701;45.588;5.288;2023-04-23T13:45:34;17.60;99.90
32201;DHT22;18701;45.588;5.288;2023-04-23T13:48:00;17.50;99.90
32201;DHT22;18701;45.588;5.288;2023-04-23T13:50:27;17.50;99.90
32201;DHT22;18701;45.588;5.288;2023-04-23T13:52:52;17.50;99.90
32201;DHT22;18701;45.588;5.288;2023-04-23T13:55:18;17.50;99.90
32201;DHT22;18701;45.588;5.288;2023-04-23T13:57:44;17.50;99.90
32201;DHT22;18701;45.588;5.288;2023-04-23T14:00:10;17.40;99.90
32201;DHT22;18701;45.588;5.288;2023-04-23T14:02:37;17.40;99.90
32201;DHT22;18701;45.588;5.288;2023-04-23T14:05:03;17.30;99.90
32201;DHT22;18701;45.588;5.288;2023-04-23T14:07:31;17.30;99.90
32201;DHT22;18701;45.588;5.288;2023-04-23T14:09:56;17.30;99.90
32201;DHT22;18701;45.588;5.288;2023-04-23T14:12:22;17.30;99.90
32201;DHT22;18701;45.588;5.288;2023-04-23T14:14:48;17.30;99.90
32201;DHT22;18701;45.588;5.288;2023-04-23T14:17:14;16.80;99.90
32201;DHT22;18701;45.588;5.288;2023-04-23T14:19:40;16.10;99.90
32201;DHT22;18701;45.588;5.288;2023-04-23T14:22:06;15.60;99.90
32201;DHT22;18701;45.588;5.288;2023-04-23T14:24:39;15.40;99.90
32201;DHT22;18701;45.588;5.288;2023-04-23T14:27:08;14.90;99.90
32201;DHT22;18701;45.588;5.288;2023-04-23T14:29:45;14.60;99.90
32201;DHT22;18701;45.588;5.288;2023-04-23T14:32:14;14.50;99.90
32201;DHT22;18701;45.588;5.288;2023-04-23T14:34:40;14.40;99.90
32201;DHT22;18701;45.588;5.288;2023-04-23T14:37:06;14.10;99.90
32201;DHT22;18701;45.588;5.288;2023-04-23T14:39:32;14.00;99.90
32201;DHT22;18701;45.588;5.288;2023-04-23T14:41:58;14.00;99.90
32201;DHT22;18701;45.588;5.288;2023-04-23T14:44:25;13.90;99.90
32201;DHT22;18701;45.588;5.288;2023-04-23T14:46:54;13.90;99.90
32201;DHT22;18701;45.588;5.288;2023-04-23T14:49:20;13.60;99.90
32201;DHT22;18701;45.588;5.288;2023-04-23T14:51:47;13.70;99.90
32201;DHT22;18701;45.588;5.288;2023-04-23T14:54:15;13.60;99.90
32201;DHT22;18701;45.588;5.288;2023-04-23T14:56:41;13.50;99.90
32201;DHT22;18701;45.588;5.288;2023-04-23T14:59:07;13.40;99.90
32201;DHT22;18701;45.588;5.288;2023-04-23T15:01:33;13.50;99.90
32201;DHT22;18701;45.588;5.288;2023-04-23T15:03:59;13.60;99.90
32201;DHT22;18701;45.588;5.288;2023-04-23T15:06:24;13.70;99.90
32201;DHT22;18701;45.588;5.288;2023-04-23T15:08:50;13.80;99.90
32201;DHT22;18701;45.588;5.288;2023-04-23T15:11:16;13.80;99.90
32201;DHT22;18701;45.588;5.288;2023-04-23T15:13:48;13.90;99.90
32201;DHT22;18701;45.588;5.288;2023-04-23T15:18:50;14.00;99.90
32201;DHT22;18701;45.588;5.288;2023-04-23T15:21:15;14.10;99.90
32201;DHT22;18701;45.588;5.288;2023-04-23T15:23:41;13.90;99.90
32201;DHT22;18701;45.588;5.288;2023-04-23T15:26:07;14.00;99.90
32201;DHT22;18701;45.588;5.288;2023-04-23T15:28:33;14.10;99.90
32201;DHT22;18701;45.588;5.288;2023-04-23T15:30:58;14.20;99.90
32201;DHT22;18701;45.588;5.288;2023-04-23T15:33:24;14.20;99.90
32201;DHT22;18701;45.588;5.288;2023-04-23T15:35:50;14.10;99.90
32201;DHT22;18701;45.588;5.288;2023-04-23T15:38:17;14.10;99.90
32201;DHT22;18701;45.588;5.288;2023-04-23T15:40:43;14.20;99.90